sensor_id;sensor_type;location;lat;lon;timestamp;temperature;humidity
68385;DHT22;55336;43.062;25.626;2022-08-19T00:01:39;20.50;99.90
68385;DHT22;55336;43.062;25.626;2022-08-19T00:04:08;20.40;99.90
68385;DHT22;55336;43.062;25.626;2022-08-19T00:06:35;20.30;99.90
68385;DHT22;55336;43.062;25.626;2022-08-19T00:09:03;20.30;99.90
68385;DHT22;55336;43.062;25.626;2022-08-19T00:11:29;20.30;99.90
68385;DHT22;55336;43.062;25.626;2022-08-19T00:13:56;20.30;99.90
68385;DHT22;55336;43.062;25.626;2022-08-19T00:16:24;20.20;99.90
68385;DHT22;55336;43.062;25.626;2022-08-19T00:18:50;20.20;99.90
68385;DHT22;55336;43.062;25.626;2022-08-19T00:21:16;20.20;99.90
68385;DHT22;55336;43.062;25.626;2022-08-19T00:23:42;20.10;99.90
68385;DHT22;55336;43.062;25.626;2022-08-19T00:26:09;20.00;99.90
68385;DHT22;55336;43.062;25.626;2022-08-19T00:28:36;20.00;99.90
68385;DHT22;55336;43.062;25.626;2022-08-19T00:31:06;19.90;99.90
68385;DHT22;55336;43.062;25.626;2022-08-19T00:33:33;19.90;99.90
68385;DHT22;55336;43.062;25.626;2022-08-19T00:36:00;19.90;99.90
68385;DHT22;55336;43.062;25.626;2022-08-19T00:38:26;19.80;99.90
68385;DHT22;55336;43.062;25.626;2022-08-19T00:40:52;19.80;99.90
68385;DHT22;55336;43.062;25.626;2022-08-19T00:43:21;19.70;99.90
68385;DHT22;55336;43.062;25.626;2022-08-19T00:45:47;19.70;99.90
68385;DHT22;55336;43.062;25.626;2022-08-19T00:48:13;19.60;99.90
68385;DHT22;55336;43.062;25.626;2022-08-19T00:50:41;19.60;99.90
68385;DHT22;55336;43.062;25.626;2022-08-19T00:53:10;19.60;99.90
68385;DHT22;55336;43.062;25.626;2022-08-19T00:55:37;19.50;99.90
68385;DHT22;55336;43.062;25.626;2022-08-19T00:58:08;19.40;99.90
68385;DHT22;55336;43.062;25.626;2022-08-19T01:00:36;19.40;99.90
68385;DHT22;55336;43.062;25.626;2022-08-19T01:03:09;19.30;99.90
68385;DHT22;55336;43.062;25.626;2022-08-19T01:05:35;19.30;99.90
68385;DHT22;55336;43.062;25.626;2022-08-19T01:08:04;19.20;99.90
68385;DHT22;55336;43.062;25.626;2022-08-19T01:10:33;19.20;99.90
68385;DHT22;55336;43.062;25.626;2022-08-19T01:13:01;19.20;99.90
68385;DHT22;55336;43.062;25.626;2022-08-19T01:15:35;19.10;99.90
68385;DHT22;55336;43.062;25.626;2022-08-19T01:18:10;19.10;99.90
68385;DHT22;55336;43.062;25.626;2022-08-19T01:20:39;19.00;99.90
68385;DHT22;55336;43.062;25.626;2022-08-19T01:23:05;19.00;99.90
68385;DHT22;55336;43.062;25.626;2022-08-19T01:25:39;19.00;99.90
68385;DHT22;55336;43.062;25.626;2022-08-19T01:28:06;19.00;99.90
68385;DHT22;55336;43.062;25.626;2022-08-19T01:30:34;19.00;99.90
68385;DHT22;55336;43.062;25.626;2022-08-19T01:33:01;19.00;99.90
68385;DHT22;55336;43.062;25.626;2022-08-19T01:35:30;19.00;99.90
68385;DHT22;55336;43.062;25.626;2022-08-19T01:38:00;19.00;99.90
68385;DHT22;55336;43.062;25.626;2022-08-19T01:40:30;19.00;99.90
68385;DHT22;55336;43.062;25.626;2022-08-19T01:42:56;19.00;99.90
68385;DHT22;55336;43.062;25.626;2022-08-19T01:45:25;19.00;99.90
68385;DHT22;55336;43.062;25.626;2022-08-19T01:47:51;19.00;99.90
68385;DHT22;55336;43.062;25.626;2022-08-19T01:50:17;19.00;99.90
68385;DHT22;55336;43.062;25.626;2022-08-19T01:52:43;18.90;99.90
68385;DHT22;55336;43.062;25.626;2022-08-19T01:55:16;18.90;99.90
68385;DHT22;55336;43.062;25.626;2022-08-19T01:57:44;18.90;99.90
68385;DHT22;55336;43.062;25.626;2022-08-19T02:00:13;18.80;99.90
68385;DHT22;55336;43.062;25.626;2022-08-19T02:02:41;18.80;99.90
68385;DHT22;55336;43.062;25.626;2022-08-19T02:05:07;18.80;99.90
68385;DHT22;55336;43.062;25.626;2022-08-19T02:07:34;18.70;99.90
68385;DHT22;55336;43.062;25.626;2022-08-19T02:10:08;18.70;99.90
68385;DHT22;55336;43.062;25.626;2022-08-19T02:12:34;18.70;99.90
68385;DHT22;55336;43.062;25.626;2022-08-19T02:15:01;18.70;99.90
68385;DHT22;55336;43.062;25.626;2022-08-19T02:17:28;18.70;99.90
68385;DHT22;55336;43.062;25.626;2022-08-19T02:19:57;18.60;99.90
68385;DHT22;55336;43.062;25.626;2022-08-19T02:22:24;18.60;99.90
68385;DHT22;55336;43.062;25.626;2022-08-19T02:24:54;18.60;99.90
68385;DHT22;55336;43.062;25.626;2022-08-19T02:27:21;18.60;99.90
68385;DHT22;55336;43.062;25.626;2022-08-19T02:29:48;18.50;99.90
68385;DHT22;55336;43.062;25.626;2022-08-19T02:32:16;18.60;99.90
68385;DHT22;55336;43.062;25.626;2022-08-19T02:34:42;18.50;99.90
68385;DHT22;55336;43.062;25.626;2022-08-19T02:37:08;18.60;99.90
68385;DHT22;55336;43.062;25.626;2022-08-19T02:39:54;18.50;99.90
68385;DHT22;55336;43.062;25.626;2022-08-19T02:42:20;18.50;99.90
68385;DHT22;55336;43.062;25.626;2022-08-19T02:44:45;18.40;99.90
68385;DHT22;55336;43.062;25.626;2022-08-19T02:47:11;18.40;99.90
68385;DHT22;55336;43.062;25.626;2022-08-19T02:49:39;18.40;99.90
68385;DHT22;55336;43.062;25.626;2022-08-19T02:52:05;18.40;99.90
68385;DHT22;55336;43.062;25.626;2022-08-19T02:54:30;18.40;99.90
68385;DHT22;55336;43.062;25.626;2022-08-19T02:56:56;18.50;99.90
68385;DHT22;55336;43.062;25.626;2022-08-19T02:59:22;18.40;99.90
68385;DHT22;55336;43.062;25.626;2022-08-19T03:01:48;18.40;99.90
68385;DHT22;55336;43.062;25.626;2022-08-19T03:04:15;18.40;99.90
68385;DHT22;55336;43.062;25.626;2022-08-19T03:06:44;18.40;99.90
68385;DHT22;55336;43.062;25.626;2022-08-19T03:09:11;18.30;99.90
68385;DHT22;55336;43.062;25.626;2022-08-19T03:11:38;18.30;99.90
68385;DHT22;55336;43.062;25.626;2022-08-19T03:14:05;18.20;99.90
68385;DHT22;55336;43.062;25.626;2022-08-19T03:16:34;18.10;99.90
68385;DHT22;55336;43.062;25.626;2022-08-19T03:19:01;18.10;99.90
68385;DHT22;55336;43.062;25.626;2022-08-19T03:21:30;18.10;99.90
68385;DHT22;55336;43.062;25.626;2022-08-19T03:23:58;18.00;99.90
68385;DHT22;55336;43.062;25.626;2022-08-19T03:26:26;18.00;99.90
68385;DHT22;55336;43.062;25.626;2022-08-19T03:28:52;17.90;99.90
68385;DHT22;55336;43.062;25.626;2022-08-19T03:31:20;17.90;99.90
68385;DHT22;55336;43.062;25.626;2022-08-19T03:33:47;17.90;99.90
68385;DHT22;55336;43.062;25.626;2022-08-19T03:36:24;17.80;99.90
68385;DHT22;55336;43.062;25.626;2022-08-19T03:38:53;17.80;99.90
68385;DHT22;55336;43.062;25.626;2022-08-19T03:41:35;17.80;99.90
68385;DHT22;55336;43.062;25.626;2022-08-19T03:44:02;17.80;99.90
68385;DHT22;55336;43.062;25.626;2022-08-19T03:46:31;17.90;99.90
68385;DHT22;55336;43.062;25.626;2022-08-19T03:49:00;17.80;99.90
68385;DHT22;55336;43.062;25.626;2022-08-19T03:51:32;17.80;99.90
68385;DHT22;55336;43.062;25.626;2022-08-19T03:54:01;17.90;99.90
68385;DHT22;55336;43.062;25.626;2022-08-19T03:56:28;18.00;99.90
68385;DHT22;55336;43.062;25.626;2022-08-19T03:58:55;18.10;99.90
68385;DHT22;55336;43.062;25.626;2022-08-19T04:01:24;18.10;99.90
68385;DHT22;55336;43.062;25.626;2022-08-19T04:03:52;18.10;99.90
68385;DHT22;55336;43.062;25.626;2022-08-19T04:06:38;18.20;99.90
68385;DHT22;55336;43.062;25.626;2022-08-19T04:09:06;18.20;99.90
68385;DHT22;55336;43.062;25.626;2022-08-19T04:11:42;18.30;99.90
68385;DHT22;55336;43.062;25.626;2022-08-19T04:14:11;18.50;99.90
68385;DHT22;55336;43.062;25.626;2022-08-19T04:16:38;18.60;99.90
68385;DHT22;55336;43.062;25.626;2022-08-19T04:19:04;18.70;99.90
68385;DHT22;55336;43.062;25.626;2022-08-19T04:21:31;18.70;99.90
68385;DHT22;55336;43.062;25.626;2022-08-19T04:23:57;18.80;99.90
68385;DHT22;55336;43.062;25.626;2022-08-19T04:26:26;19.00;99.90
68385;DHT22;55336;43.062;25.626;2022-08-19T04:28:52;19.10;99.90
68385;DHT22;55336;43.062;25.626;2022-08-19T04:31:24;19.20;99.90
68385;DHT22;55336;43.062;25.626;2022-08-19T04:33:56;19.30;99.90
68385;DHT22;55336;43.062;25.626;2022-08-19T04:36:26;19.40;99.90
68385;DHT22;55336;43.062;25.626;2022-08-19T04:38:57;19.50;99.90
68385;DHT22;55336;43.062;25.626;2022-08-19T04:41:24;19.60;99.90
68385;DHT22;55336;43.062;25.626;2022-08-19T04:44:10;19.70;99.90
68385;DHT22;55336;43.062;25.626;2022-08-19T04:46:36;19.90;99.90
68385;DHT22;55336;43.062;25.626;2022-08-19T04:49:04;20.00;99.90
68385;DHT22;55336;43.062;25.626;2022-08-19T04:51:32;20.10;99.90
68385;DHT22;55336;43.062;25.626;2022-08-19T04:53:58;20.20;99.90
68385;DHT22;55336;43.062;25.626;2022-08-19T04:56:26;20.20;99.90
68385;DHT22;55336;43.062;25.626;2022-08-19T04:58:53;20.30;99.90
68385;DHT22;55336;43.062;25.626;2022-08-19T05:01:22;20.40;99.90
68385;DHT22;55336;43.062;25.626;2022-08-19T05:03:49;20.60;99.90
68385;DHT22;55336;43.062;25.626;2022-08-19T05:06:17;20.70;99.90
68385;DHT22;55336;43.062;25.626;2022-08-19T05:08:44;20.90;99.90
68385;DHT22;55336;43.062;25.626;2022-08-19T05:13:38;21.10;99.90
68385;DHT22;55336;43.062;25.626;2022-08-19T05:16:04;21.20;99.90
68385;DHT22;55336;43.062;25.626;2022-08-19T05:18:30;21.40;99.90
68385;DHT22;55336;43.062;25.626;2022-08-19T05:21:18;21.60;99.90
68385;DHT22;55336;43.062;25.626;2022-08-19T05:24:03;21.80;99.90
68385;DHT22;55336;43.062;25.626;2022-08-19T05:26:33;21.90;99.90
68385;DHT22;55336;43.062;25.626;2022-08-19T05:28:58;22.10;99.90
68385;DHT22;55336;43.062;25.626;2022-08-19T05:31:24;22.40;99.90
68385;DHT22;55336;43.062;25.626;2022-08-19T05:33:50;22.80;99.90
68385;DHT22;55336;43.062;25.626;2022-08-19T05:36:16;23.20;99.90
68385;DHT22;55336;43.062;25.626;2022-08-19T05:38:42;23.70;99.90
68385;DHT22;55336;43.062;25.626;2022-08-19T05:41:11;24.30;96.00
68385;DHT22;55336;43.062;25.626;2022-08-19T05:43:37;24.60;93.10
68385;DHT22;55336;43.062;25.626;2022-08-19T05:46:05;24.90;90.50
68385;DHT22;55336;43.062;25.626;2022-08-19T05:48:32;25.40;88.80
68385;DHT22;55336;43.062;25.626;2022-08-19T05:51:06;25.90;84.90
68385;DHT22;55336;43.062;25.626;2022-08-19T05:53:33;26.30;82.30
68385;DHT22;55336;43.062;25.626;2022-08-19T05:56:07;26.30;80.10
68385;DHT22;55336;43.062;25.626;2022-08-19T05:58:34;27.00;77.90
68385;DHT22;55336;43.062;25.626;2022-08-19T06:01:00;27.60;74.30
68385;DHT22;55336;43.062;25.626;2022-08-19T06:03:33;28.00;72.60
68385;DHT22;55336;43.062;25.626;2022-08-19T06:06:00;28.00;70.00
68385;DHT22;55336;43.062;25.626;2022-08-19T06:08:26;28.50;65.20
68385;DHT22;55336;43.062;25.626;2022-08-19T06:10:53;29.00;63.90
68385;DHT22;55336;43.062;25.626;2022-08-19T06:13:19;29.40;61.00
68385;DHT22;55336;43.062;25.626;2022-08-19T06:15:45;29.80;60.80
68385;DHT22;55336;43.062;25.626;2022-08-19T06:18:13;29.10;62.00
68385;DHT22;55336;43.062;25.626;2022-08-19T06:20:40;29.70;59.70
68385;DHT22;55336;43.062;25.626;2022-08-19T06:23:06;29.90;58.10
68385;DHT22;55336;43.062;25.626;2022-08-19T06:25:32;29.80;59.40
68385;DHT22;55336;43.062;25.626;2022-08-19T06:27:58;30.00;58.90
68385;DHT22;55336;43.062;25.626;2022-08-19T06:30:23;29.90;56.20
68385;DHT22;55336;43.062;25.626;2022-08-19T06:32:49;30.60;55.80
68385;DHT22;55336;43.062;25.626;2022-08-19T06:35:15;31.20;53.50
68385;DHT22;55336;43.062;25.626;2022-08-19T06:37:41;31.40;51.40
68385;DHT22;55336;43.062;25.626;2022-08-19T06:40:08;31.70;51.50
68385;DHT22;55336;43.062;25.626;2022-08-19T06:42:36;31.80;51.70
68385;DHT22;55336;43.062;25.626;2022-08-19T06:45:05;31.70;49.70
68385;DHT22;55336;43.062;25.626;2022-08-19T06:47:31;31.40;49.90
68385;DHT22;55336;43.062;25.626;2022-08-19T06:49:59;32.10;49.60
68385;DHT22;55336;43.062;25.626;2022-08-19T06:52:33;32.60;47.50
68385;DHT22;55336;43.062;25.626;2022-08-19T06:55:00;32.90;46.00
68385;DHT22;55336;43.062;25.626;2022-08-19T06:57:26;33.10;46.80
68385;DHT22;55336;43.062;25.626;2022-08-19T06:59:52;33.50;45.10
68385;DHT22;55336;43.062;25.626;2022-08-19T07:02:19;33.80;44.30
68385;DHT22;55336;43.062;25.626;2022-08-19T07:04:45;34.20;43.70
68385;DHT22;55336;43.062;25.626;2022-08-19T07:07:14;34.10;43.20
68385;DHT22;55336;43.062;25.626;2022-08-19T07:09:42;34.40;43.40
68385;DHT22;55336;43.062;25.626;2022-08-19T07:12:10;34.40;42.50
68385;DHT22;55336;43.062;25.626;2022-08-19T07:14:37;34.20;42.70
68385;DHT22;55336;43.062;25.626;2022-08-19T07:17:06;34.20;42.70
68385;DHT22;55336;43.062;25.626;2022-08-19T07:19:33;34.40;42.10
68385;DHT22;55336;43.062;25.626;2022-08-19T07:22:01;34.30;42.40
68385;DHT22;55336;43.062;25.626;2022-08-19T07:24:29;34.30;42.40
68385;DHT22;55336;43.062;25.626;2022-08-19T07:26:57;34.80;41.00
68385;DHT22;55336;43.062;25.626;2022-08-19T07:29:28;34.40;40.40
68385;DHT22;55336;43.062;25.626;2022-08-19T07:31:55;35.10;41.20
68385;DHT22;55336;43.062;25.626;2022-08-19T07:34:23;34.80;40.20
68385;DHT22;55336;43.062;25.626;2022-08-19T07:36:50;35.50;39.90
68385;DHT22;55336;43.062;25.626;2022-08-19T07:39:19;36.00;38.40
68385;DHT22;55336;43.062;25.626;2022-08-19T07:41:45;36.10;37.50
68385;DHT22;55336;43.062;25.626;2022-08-19T07:44:13;36.30;37.20
68385;DHT22;55336;43.062;25.626;2022-08-19T07:46:43;36.60;37.20
68385;DHT22;55336;43.062;25.626;2022-08-19T07:49:10;37.00;36.50
68385;DHT22;55336;43.062;25.626;2022-08-19T07:52:06;37.20;35.30
68385;DHT22;55336;43.062;25.626;2022-08-19T07:54:34;36.70;35.10
68385;DHT22;55336;43.062;25.626;2022-08-19T07:57:01;36.50;36.00
68385;DHT22;55336;43.062;25.626;2022-08-19T07:59:27;36.50;35.60
68385;DHT22;55336;43.062;25.626;2022-08-19T08:01:55;36.90;34.60
68385;DHT22;55336;43.062;25.626;2022-08-19T08:04:21;37.10;34.80
68385;DHT22;55336;43.062;25.626;2022-08-19T08:07:07;37.10;34.00
68385;DHT22;55336;43.062;25.626;2022-08-19T08:09:53;37.00;34.00
68385;DHT22;55336;43.062;25.626;2022-08-19T08:12:27;37.10;34.00
68385;DHT22;55336;43.062;25.626;2022-08-19T08:14:57;37.60;33.00
68385;DHT22;55336;43.062;25.626;2022-08-19T08:17:27;37.70;33.00
68385;DHT22;55336;43.062;25.626;2022-08-19T08:19:55;38.00;32.00
68385;DHT22;55336;43.062;25.626;2022-08-19T08:22:22;37.80;32.00
68385;DHT22;55336;43.062;25.626;2022-08-19T08:25:16;37.60;31.90
68385;DHT22;55336;43.062;25.626;2022-08-19T08:27:44;37.60;32.00
68385;DHT22;55336;43.062;25.626;2022-08-19T08:30:17;38.20;31.30
68385;DHT22;55336;43.062;25.626;2022-08-19T08:32:44;37.80;31.00
68385;DHT22;55336;43.062;25.626;2022-08-19T08:35:13;38.00;31.80
68385;DHT22;55336;43.062;25.626;2022-08-19T08:37:39;37.90;31.00
68385;DHT22;55336;43.062;25.626;2022-08-19T08:40:27;37.80;30.60
68385;DHT22;55336;43.062;25.626;2022-08-19T08:43:40;37.80;30.80
68385;DHT22;55336;43.062;25.626;2022-08-19T08:45:52;37.90;31.00
68385;DHT22;55336;43.062;25.626;2022-08-19T08:48:52;37.50;31.40
68385;DHT22;55336;43.062;25.626;2022-08-19T08:52:21;37.60;31.00
68385;DHT22;55336;43.062;25.626;2022-08-19T08:54:46;38.30;30.30
68385;DHT22;55336;43.062;25.626;2022-08-19T08:57:17;38.30;30.20
68385;DHT22;55336;43.062;25.626;2022-08-19T08:59:47;38.30;29.60
68385;DHT22;55336;43.062;25.626;2022-08-19T09:02:18;36.80;32.10
68385;DHT22;55336;43.062;25.626;2022-08-19T09:04:44;37.60;30.80
68385;DHT22;55336;43.062;25.626;2022-08-19T09:15:39;38.70;28.10
68385;DHT22;55336;43.062;25.626;2022-08-19T09:18:08;39.30;27.60
68385;DHT22;55336;43.062;25.626;2022-08-19T09:20:34;39.50;26.50
68385;DHT22;55336;43.062;25.626;2022-08-19T09:23:00;39.40;25.80
68385;DHT22;55336;43.062;25.626;2022-08-19T09:25:26;39.20;26.70
68385;DHT22;55336;43.062;25.626;2022-08-19T09:27:53;39.50;27.50
68385;DHT22;55336;43.062;25.626;2022-08-19T09:30:27;39.60;25.80
68385;DHT22;55336;43.062;25.626;2022-08-19T09:32:53;39.30;26.10
68385;DHT22;55336;43.062;25.626;2022-08-19T09:35:25;39.10;26.50
68385;DHT22;55336;43.062;25.626;2022-08-19T09:37:53;38.40;28.00
68385;DHT22;55336;43.062;25.626;2022-08-19T09:40:19;38.80;27.10
68385;DHT22;55336;43.062;25.626;2022-08-19T09:42:46;39.10;27.10
68385;DHT22;55336;43.062;25.626;2022-08-19T09:45:14;39.60;26.20
68385;DHT22;55336;43.062;25.626;2022-08-19T09:47:40;39.80;25.90
68385;DHT22;55336;43.062;25.626;2022-08-19T09:50:08;39.80;26.10
68385;DHT22;55336;43.062;25.626;2022-08-19T09:52:35;39.60;25.40
68385;DHT22;55336;43.062;25.626;2022-08-19T09:55:05;39.70;26.60
68385;DHT22;55336;43.062;25.626;2022-08-19T09:57:32;39.90;25.00
68385;DHT22;55336;43.062;25.626;2022-08-19T09:59:58;40.00;26.20
68385;DHT22;55336;43.062;25.626;2022-08-19T10:02:24;40.10;26.40
68385;DHT22;55336;43.062;25.626;2022-08-19T10:04:50;39.90;24.60
68385;DHT22;55336;43.062;25.626;2022-08-19T10:07:35;39.90;24.80
68385;DHT22;55336;43.062;25.626;2022-08-19T10:10:02;39.60;25.30
68385;DHT22;55336;43.062;25.626;2022-08-19T10:12:28;39.40;26.60
68385;DHT22;55336;43.062;25.626;2022-08-19T10:14:54;39.40;26.20
68385;DHT22;55336;43.062;25.626;2022-08-19T10:17:20;39.80;25.60
68385;DHT22;55336;43.062;25.626;2022-08-19T10:19:46;40.00;25.70
68385;DHT22;55336;43.062;25.626;2022-08-19T10:22:12;40.00;25.50
68385;DHT22;55336;43.062;25.626;2022-08-19T10:24:39;39.50;25.20
68385;DHT22;55336;43.062;25.626;2022-08-19T10:27:05;39.30;26.20
68385;DHT22;55336;43.062;25.626;2022-08-19T10:29:32;39.50;26.30
68385;DHT22;55336;43.062;25.626;2022-08-19T10:32:05;40.20;25.10
68385;DHT22;55336;43.062;25.626;2022-08-19T10:34:34;40.60;24.00
68385;DHT22;55336;43.062;25.626;2022-08-19T10:37:02;40.50;24.30
68385;DHT22;55336;43.062;25.626;2022-08-19T10:39:33;40.50;22.30
68385;DHT22;55336;43.062;25.626;2022-08-19T10:42:03;40.20;24.40
68385;DHT22;55336;43.062;25.626;2022-08-19T10:44:29;40.30;24.10
68385;DHT22;55336;43.062;25.626;2022-08-19T10:46:55;40.40;24.10
68385;DHT22;55336;43.062;25.626;2022-08-19T10:49:21;39.90;24.70
68385;DHT22;55336;43.062;25.626;2022-08-19T10:51:49;39.70;26.40
68385;DHT22;55336;43.062;25.626;2022-08-19T10:54:34;39.70;25.30
68385;DHT22;55336;43.062;25.626;2022-08-19T10:57:18;40.20;25.00
68385;DHT22;55336;43.062;25.626;2022-08-19T10:59:44;40.60;23.50
68385;DHT22;55336;43.062;25.626;2022-08-19T11:02:11;39.80;25.00
68385;DHT22;55336;43.062;25.626;2022-08-19T11:04:39;39.30;25.70
68385;DHT22;55336;43.062;25.626;2022-08-19T11:07:06;38.40;27.20
68385;DHT22;55336;43.062;25.626;2022-08-19T11:09:37;39.70;25.20
68385;DHT22;55336;43.062;25.626;2022-08-19T11:12:04;39.50;25.90
68385;DHT22;55336;43.062;25.626;2022-08-19T11:14:31;40.50;24.80
68385;DHT22;55336;43.062;25.626;2022-08-19T11:16:58;41.00;23.50
68385;DHT22;55336;43.062;25.626;2022-08-19T11:19:24;40.20;24.70
68385;DHT22;55336;43.062;25.626;2022-08-19T11:21:51;39.30;24.70
68385;DHT22;55336;43.062;25.626;2022-08-19T11:24:23;38.60;26.00
68385;DHT22;55336;43.062;25.626;2022-08-19T11:26:51;37.80;26.60
68385;DHT22;55336;43.062;25.626;2022-08-19T11:29:19;37.80;27.70
68385;DHT22;55336;43.062;25.626;2022-08-19T11:31:47;39.30;25.70
68385;DHT22;55336;43.062;25.626;2022-08-19T11:34:17;39.40;24.60
68385;DHT22;55336;43.062;25.626;2022-08-19T11:36:45;38.90;23.50
68385;DHT22;55336;43.062;25.626;2022-08-19T11:39:14;39.20;24.50
68385;DHT22;55336;43.062;25.626;2022-08-19T11:41:40;39.40;22.50
68385;DHT22;55336;43.062;25.626;2022-08-19T11:44:07;39.20;23.40
68385;DHT22;55336;43.062;25.626;2022-08-19T11:46:35;38.50;24.30
68385;DHT22;55336;43.062;25.626;2022-08-19T11:49:02;39.00;25.00
68385;DHT22;55336;43.062;25.626;2022-08-19T11:51:30;39.30;25.50
68385;DHT22;55336;43.062;25.626;2022-08-19T11:53:57;40.30;24.00
68385;DHT22;55336;43.062;25.626;2022-08-19T11:56:24;41.10;23.00
68385;DHT22;55336;43.062;25.626;2022-08-19T11:58:51;40.50;23.70
68385;DHT22;55336;43.062;25.626;2022-08-19T12:01:19;39.10;24.20
68385;DHT22;55336;43.062;25.626;2022-08-19T12:03:47;38.00;25.80
68385;DHT22;55336;43.062;25.626;2022-08-19T12:06:16;37.60;26.60
68385;DHT22;55336;43.062;25.626;2022-08-19T12:08:43;38.10;25.50
68385;DHT22;55336;43.062;25.626;2022-08-19T12:11:10;39.00;24.40
68385;DHT22;55336;43.062;25.626;2022-08-19T12:13:37;39.30;23.70
68385;DHT22;55336;43.062;25.626;2022-08-19T12:16:11;39.50;21.90
68385;DHT22;55336;43.062;25.626;2022-08-19T12:18:39;39.50;22.80
68385;DHT22;55336;43.062;25.626;2022-08-19T12:21:06;39.00;24.20
68385;DHT22;55336;43.062;25.626;2022-08-19T12:23:32;39.20;23.10
68385;DHT22;55336;43.062;25.626;2022-08-19T12:25:58;39.30;22.10
68385;DHT22;55336;43.062;25.626;2022-08-19T12:28:25;39.80;21.30
68385;DHT22;55336;43.062;25.626;2022-08-19T12:30:51;40.10;21.60
68385;DHT22;55336;43.062;25.626;2022-08-19T12:33:18;40.40;21.10
68385;DHT22;55336;43.062;25.626;2022-08-19T12:35:45;40.40;22.70
68385;DHT22;55336;43.062;25.626;2022-08-19T12:38:13;40.50;20.40
68385;DHT22;55336;43.062;25.626;2022-08-19T12:40:40;40.80;19.40
68385;DHT22;55336;43.062;25.626;2022-08-19T12:43:09;40.60;22.20
68385;DHT22;55336;43.062;25.626;2022-08-19T12:45:37;41.20;22.10
68385;DHT22;55336;43.062;25.626;2022-08-19T12:48:04;40.30;24.60
68385;DHT22;55336;43.062;25.626;2022-08-19T12:50:30;40.90;22.00
68385;DHT22;55336;43.062;25.626;2022-08-19T12:52:56;40.90;21.00
68385;DHT22;55336;43.062;25.626;2022-08-19T12:55:25;40.40;22.00
68385;DHT22;55336;43.062;25.626;2022-08-19T12:57:56;39.90;23.40
68385;DHT22;55336;43.062;25.626;2022-08-19T13:00:24;40.60;22.30
68385;DHT22;55336;43.062;25.626;2022-08-19T13:02:51;41.10;20.70
68385;DHT22;55336;43.062;25.626;2022-08-19T13:05:24;41.60;20.00
68385;DHT22;55336;43.062;25.626;2022-08-19T13:07:52;41.60;19.30
68385;DHT22;55336;43.062;25.626;2022-08-19T13:10:22;41.90;19.10
68385;DHT22;55336;43.062;25.626;2022-08-19T13:12:50;41.40;20.00
68385;DHT22;55336;43.062;25.626;2022-08-19T13:15:20;41.70;19.80
68385;DHT22;55336;43.062;25.626;2022-08-19T13:17:53;41.40;19.80
68385;DHT22;55336;43.062;25.626;2022-08-19T13:20:20;39.30;23.90
68385;DHT22;55336;43.062;25.626;2022-08-19T13:22:46;39.50;22.80
68385;DHT22;55336;43.062;25.626;2022-08-19T13:25:19;38.50;22.80
68385;DHT22;55336;43.062;25.626;2022-08-19T13:27:47;38.30;24.60
68385;DHT22;55336;43.062;25.626;2022-08-19T13:30:17;37.90;25.40
68385;DHT22;55336;43.062;25.626;2022-08-19T13:33:09;38.10;25.50
68385;DHT22;55336;43.062;25.626;2022-08-19T13:35:46;39.10;25.00
68385;DHT22;55336;43.062;25.626;2022-08-19T13:38:14;40.10;22.80
68385;DHT22;55336;43.062;25.626;2022-08-19T13:40:44;40.70;21.60
68385;DHT22;55336;43.062;25.626;2022-08-19T13:43:13;41.10;21.50
68385;DHT22;55336;43.062;25.626;2022-08-19T13:45:41;41.40;20.70
68385;DHT22;55336;43.062;25.626;2022-08-19T13:48:07;41.70;20.30
68385;DHT22;55336;43.062;25.626;2022-08-19T13:50:39;41.70;19.60
68385;DHT22;55336;43.062;25.626;2022-08-19T13:53:07;42.00;19.60
68385;DHT22;55336;43.062;25.626;2022-08-19T13:55:33;42.10;20.00
68385;DHT22;55336;43.062;25.626;2022-08-19T13:58:00;41.80;19.70
68385;DHT22;55336;43.062;25.626;2022-08-19T14:00:29;41.90;19.50
68385;DHT22;55336;43.062;25.626;2022-08-19T14:02:57;41.80;19.60
68385;DHT22;55336;43.062;25.626;2022-08-19T14:05:24;41.80;19.60
68385;DHT22;55336;43.062;25.626;2022-08-19T14:07:51;41.00;21.10
68385;DHT22;55336;43.062;25.626;2022-08-19T14:10:17;40.00;22.70
68385;DHT22;55336;43.062;25.626;2022-08-19T14:12:44;38.80;23.10
68385;DHT22;55336;43.062;25.626;2022-08-19T14:15:11;38.20;25.90
68385;DHT22;55336;43.062;25.626;2022-08-19T14:17:39;37.70;25.10
68385;DHT22;55336;43.062;25.626;2022-08-19T14:20:08;37.20;26.30
68385;DHT22;55336;43.062;25.626;2022-08-19T14:22:36;36.70;26.80
68385;DHT22;55336;43.062;25.626;2022-08-19T14:25:03;36.10;28.10
68385;DHT22;55336;43.062;25.626;2022-08-19T14:27:32;35.90;28.60
68385;DHT22;55336;43.062;25.626;2022-08-19T14:30:05;35.70;28.90
68385;DHT22;55336;43.062;25.626;2022-08-19T14:32:32;36.40;28.40
68385;DHT22;55336;43.062;25.626;2022-08-19T14:34:59;37.30;25.90
68385;DHT22;55336;43.062;25.626;2022-08-19T14:37:26;37.90;24.30
68385;DHT22;55336;43.062;25.626;2022-08-19T14:39:52;38.40;23.70
68385;DHT22;55336;43.062;25.626;2022-08-19T14:42:18;38.70;22.80
68385;DHT22;55336;43.062;25.626;2022-08-19T14:44:44;39.00;23.30
68385;DHT22;55336;43.062;25.626;2022-08-19T14:47:10;39.50;23.20
68385;DHT22;55336;43.062;25.626;2022-08-19T14:49:37;39.20;23.50
68385;DHT22;55336;43.062;25.626;2022-08-19T14:52:04;39.10;24.10
68385;DHT22;55336;43.062;25.626;2022-08-19T14:54:31;37.80;26.50
68385;DHT22;55336;43.062;25.626;2022-08-19T14:56:57;38.00;27.10
68385;DHT22;55336;43.062;25.626;2022-08-19T14:59:23;38.70;26.20
68385;DHT22;55336;43.062;25.626;2022-08-19T15:01:49;39.10;24.40
68385;DHT22;55336;43.062;25.626;2022-08-19T15:04:15;39.50;24.10
68385;DHT22;55336;43.062;25.626;2022-08-19T15:06:41;38.90;23.60
68385;DHT22;55336;43.062;25.626;2022-08-19T15:09:08;39.10;25.00
68385;DHT22;55336;43.062;25.626;2022-08-19T15:11:34;39.40;23.10
68385;DHT22;55336;43.062;25.626;2022-08-19T15:14:01;39.40;21.70
68385;DHT22;55336;43.062;25.626;2022-08-19T15:16:27;39.50;22.30
68385;DHT22;55336;43.062;25.626;2022-08-19T15:18:56;39.60;23.00
68385;DHT22;55336;43.062;25.626;2022-08-19T15:21:23;39.60;21.60
68385;DHT22;55336;43.062;25.626;2022-08-19T15:23:50;39.70;21.70
68385;DHT22;55336;43.062;25.626;2022-08-19T15:26:18;39.90;21.80
68385;DHT22;55336;43.062;25.626;2022-08-19T15:28:48;40.00;22.50
68385;DHT22;55336;43.062;25.626;2022-08-19T15:31:20;40.00;22.70
68385;DHT22;55336;43.062;25.626;2022-08-19T15:33:48;39.90;22.40
68385;DHT22;55336;43.062;25.626;2022-08-19T15:36:15;39.60;22.30